sensor_id;sensor_type;location;lat;lon;timestamp;P1;durP1;ratioP1;P2;durP2;ratioP2
11131;SDS011;5620;53.570;9.718;2023-03-01T00:01:30;11.57;;;3.83;;
11131;SDS011;5620;53.570;9.718;2023-03-01T00:04:02;6.87;;;5.20;;
11131;SDS011;5620;53.570;9.718;2023-03-01T00:06:27;4.38;;;4.07;;
11131;SDS011;5620;53.570;9.718;2023-03-01T00:08:55;4.45;;;3.70;;
11131;SDS011;5620;53.570;9.718;2023-03-01T00:11:24;5.22;;;4.85;;
11131;SDS011;5620;53.570;9.718;2023-03-01T00:13:53;6.45;;;3.75;;
11131;SDS011;5620;53.570;9.718;2023-03-01T00:16:25;6.47;;;3.43;;
11131;SDS011;5620;53.570;9.718;2023-03-01T00:18:56;4.45;;;4.15;;
11131;SDS011;5620;53.570;9.718;2023-03-01T00:21:22;7.80;;;4.07;;
11131;SDS011;5620;53.570;9.718;2023-03-01T00:23:49;4.85;;;4.25;;
11131;SDS011;5620;53.570;9.718;2023-03-01T00:26:18;3.95;;;3.65;;
11131;SDS011;5620;53.570;9.718;2023-03-01T00:28:47;4.67;;;4.13;;
11131;SDS011;5620;53.570;9.718;2023-03-01T00:31:16;5.47;;;4.57;;
11131;SDS011;5620;53.570;9.718;2023-03-01T00:33:44;5.00;;;4.38;;
11131;SDS011;5620;53.570;9.718;2023-03-01T00:36:12;4.75;;;4.25;;
11131;SDS011;5620;53.570;9.718;2023-03-01T00:38:42;5.13;;;4.68;;
11131;SDS011;5620;53.570;9.718;2023-03-01T00:41:14;8.40;;;4.50;;
11131;SDS011;5620;53.570;9.718;2023-03-01T00:43:41;9.10;;;2.95;;
11131;SDS011;5620;53.570;9.718;2023-03-01T00:46:10;11.43;;;3.60;;
11131;SDS011;5620;53.570;9.718;2023-03-01T00:48:42;4.80;;;4.43;;
11131;SDS011;5620;53.570;9.718;2023-03-01T00:51:12;13.30;;;9.10;;
11131;SDS011;5620;53.570;9.718;2023-03-01T00:53:40;6.57;;;5.17;;
11131;SDS011;5620;53.570;9.718;2023-03-01T00:56:09;7.60;;;5.35;;
11131;SDS011;5620;53.570;9.718;2023-03-01T00:58:37;5.70;;;4.55;;
11131;SDS011;5620;53.570;9.718;2023-03-01T01:01:20;11.52;;;4.03;;
11131;SDS011;5620;53.570;9.718;2023-03-01T01:06:40;4.00;;;3.60;;
11131;SDS011;5620;53.570;9.718;2023-03-01T01:09:10;6.50;;;4.28;;
11131;SDS011;5620;53.570;9.718;2023-03-01T01:11:41;4.85;;;4.45;;
11131;SDS011;5620;53.570;9.718;2023-03-01T01:14:07;5.13;;;4.30;;
11131;SDS011;5620;53.570;9.718;2023-03-01T01:16:34;5.47;;;5.10;;
11131;SDS011;5620;53.570;9.718;2023-03-01T01:19:02;8.03;;;3.93;;
11131;SDS011;5620;53.570;9.718;2023-03-01T01:21:28;3.55;;;3.25;;
11131;SDS011;5620;53.570;9.718;2023-03-01T01:23:57;5.15;;;4.25;;
11131;SDS011;5620;53.570;9.718;2023-03-01T01:26:29;4.13;;;3.75;;
11131;SDS011;5620;53.570;9.718;2023-03-01T01:28:59;5.00;;;4.60;;
11131;SDS011;5620;53.570;9.718;2023-03-01T01:31:29;3.83;;;3.60;;
11131;SDS011;5620;53.570;9.718;2023-03-01T01:33:59;6.15;;;4.13;;
11131;SDS011;5620;53.570;9.718;2023-03-01T01:36:32;6.10;;;4.35;;
11131;SDS011;5620;53.570;9.718;2023-03-01T01:38:58;5.97;;;3.75;;
11131;SDS011;5620;53.570;9.718;2023-03-01T01:41:28;3.92;;;3.63;;
11131;SDS011;5620;53.570;9.718;2023-03-01T01:46:54;3.20;;;2.92;;
11131;SDS011;5620;53.570;9.718;2023-03-01T01:49:38;4.55;;;4.22;;
11131;SDS011;5620;53.570;9.718;2023-03-01T01:55:00;4.25;;;3.85;;
11131;SDS011;5620;53.570;9.718;2023-03-01T01:57:39;3.23;;;3.03;;
11131;SDS011;5620;53.570;9.718;2023-03-01T02:00:10;8.65;;;3.83;;
11131;SDS011;5620;53.570;9.718;2023-03-01T02:02:56;3.35;;;3.10;;
11131;SDS011;5620;53.570;9.718;2023-03-01T02:08:17;5.45;;;3.97;;
11131;SDS011;5620;53.570;9.718;2023-03-01T02:10:47;3.83;;;3.20;;
11131;SDS011;5620;53.570;9.718;2023-03-01T02:13:21;3.28;;;2.97;;
11131;SDS011;5620;53.570;9.718;2023-03-01T02:15:48;4.25;;;3.88;;
11131;SDS011;5620;53.570;9.718;2023-03-01T02:18:16;4.25;;;3.40;;
11131;SDS011;5620;53.570;9.718;2023-03-01T02:23:40;3.83;;;2.57;;
11131;SDS011;5620;53.570;9.718;2023-03-01T02:29:03;6.57;;;3.15;;
11131;SDS011;5620;53.570;9.718;2023-03-01T02:31:33;3.88;;;3.20;;
11131;SDS011;5620;53.570;9.718;2023-03-01T02:34:02;3.42;;;3.05;;
11131;SDS011;5620;53.570;9.718;2023-03-01T02:36:52;4.43;;;3.53;;
11131;SDS011;5620;53.570;9.718;2023-03-01T02:39:51;3.85;;;3.63;;
11131;SDS011;5620;53.570;9.718;2023-03-01T02:42:35;6.38;;;3.03;;
11131;SDS011;5620;53.570;9.718;2023-03-01T02:45:12;3.92;;;3.72;;
11131;SDS011;5620;53.570;9.718;2023-03-01T02:47:38;3.50;;;3.20;;
11131;SDS011;5620;53.570;9.718;2023-03-01T02:50:51;3.17;;;2.90;;
11131;SDS011;5620;53.570;9.718;2023-03-01T02:53:11;2.90;;;2.10;;
11131;SDS011;5620;53.570;9.718;2023-03-01T02:55:58;3.60;;;3.40;;
11131;SDS011;5620;53.570;9.718;2023-03-01T02:58:24;3.90;;;3.70;;
11131;SDS011;5620;53.570;9.718;2023-03-01T03:00:51;3.92;;;3.63;;
11131;SDS011;5620;53.570;9.718;2023-03-01T03:03:19;3.90;;;2.33;;
11131;SDS011;5620;53.570;9.718;2023-03-01T03:05:47;5.03;;;3.10;;
11131;SDS011;5620;53.570;9.718;2023-03-01T03:08:14;4.07;;;3.63;;
11131;SDS011;5620;53.570;9.718;2023-03-01T03:10:42;3.20;;;3.00;;
11131;SDS011;5620;53.570;9.718;2023-03-01T03:13:12;3.95;;;3.65;;
11131;SDS011;5620;53.570;9.718;2023-03-01T03:15:40;3.17;;;2.67;;
11131;SDS011;5620;53.570;9.718;2023-03-01T03:18:09;3.13;;;2.85;;
11131;SDS011;5620;53.570;9.718;2023-03-01T03:20:38;3.88;;;3.67;;
11131;SDS011;5620;53.570;9.718;2023-03-01T03:23:06;5.90;;;3.25;;
11131;SDS011;5620;53.570;9.718;2023-03-01T03:25:35;4.13;;;3.67;;
11131;SDS011;5620;53.570;9.718;2023-03-01T03:28:02;4.03;;;3.17;;
11131;SDS011;5620;53.570;9.718;2023-03-01T03:30:31;3.50;;;3.30;;
11131;SDS011;5620;53.570;9.718;2023-03-01T03:33:04;3.88;;;3.50;;
11131;SDS011;5620;53.570;9.718;2023-03-01T03:35:34;2.78;;;2.58;;
11131;SDS011;5620;53.570;9.718;2023-03-01T03:38:06;4.93;;;3.70;;
11131;SDS011;5620;53.570;9.718;2023-03-01T03:43:06;3.45;;;3.17;;
11131;SDS011;5620;53.570;9.718;2023-03-01T03:45:36;4.68;;;3.03;;
11131;SDS011;5620;53.570;9.718;2023-03-01T03:48:03;3.13;;;2.92;;
11131;SDS011;5620;53.570;9.718;2023-03-01T03:50:33;4.57;;;3.17;;
11131;SDS011;5620;53.570;9.718;2023-03-01T03:53:04;3.10;;;2.90;;
11131;SDS011;5620;53.570;9.718;2023-03-01T03:55:36;3.10;;;2.80;;
11131;SDS011;5620;53.570;9.718;2023-03-01T03:58:07;3.75;;;3.45;;
11131;SDS011;5620;53.570;9.718;2023-03-01T04:00:39;3.22;;;2.92;;
11131;SDS011;5620;53.570;9.718;2023-03-01T04:03:08;3.88;;;3.58;;
11131;SDS011;5620;53.570;9.718;2023-03-01T04:05:37;4.90;;;3.17;;
11131;SDS011;5620;53.570;9.718;2023-03-01T04:08:03;3.75;;;3.45;;
11131;SDS011;5620;53.570;9.718;2023-03-01T04:10:34;3.47;;;3.17;;
11131;SDS011;5620;53.570;9.718;2023-03-01T04:13:04;4.90;;;2.65;;
11131;SDS011;5620;53.570;9.718;2023-03-01T04:15:32;4.65;;;4.25;;
11131;SDS011;5620;53.570;9.718;2023-03-01T04:17:58;3.67;;;2.53;;
11131;SDS011;5620;53.570;9.718;2023-03-01T04:20:25;2.67;;;2.47;;
11131;SDS011;5620;53.570;9.718;2023-03-01T04:22:58;3.47;;;3.15;;
11131;SDS011;5620;53.570;9.718;2023-03-01T04:25:48;3.65;;;3.08;;
11131;SDS011;5620;53.570;9.718;2023-03-01T04:28:23;4.53;;;3.38;;
11131;SDS011;5620;53.570;9.718;2023-03-01T04:30:55;4.43;;;2.90;;
11131;SDS011;5620;53.570;9.718;2023-03-01T04:33:23;2.28;;;2.03;;
11131;SDS011;5620;53.570;9.718;2023-03-01T04:35:51;3.05;;;2.40;;
11131;SDS011;5620;53.570;9.718;2023-03-01T04:38:19;3.67;;;1.98;;
11131;SDS011;5620;53.570;9.718;2023-03-01T04:40:48;3.13;;;2.67;;
11131;SDS011;5620;53.570;9.718;2023-03-01T04:43:15;1.97;;;1.80;;
11131;SDS011;5620;53.570;9.718;2023-03-01T04:45:43;5.95;;;2.65;;
11131;SDS011;5620;53.570;9.718;2023-03-01T04:48:10;4.30;;;2.28;;
11131;SDS011;5620;53.570;9.718;2023-03-01T04:50:35;5.32;;;2.28;;
11131;SDS011;5620;53.570;9.718;2023-03-01T04:53:02;5.60;;;3.07;;
11131;SDS011;5620;53.570;9.718;2023-03-01T04:55:29;5.93;;;2.95;;
11131;SDS011;5620;53.570;9.718;2023-03-01T04:57:57;5.78;;;2.67;;
11131;SDS011;5620;53.570;9.718;2023-03-01T05:00:24;2.97;;;2.75;;
11131;SDS011;5620;53.570;9.718;2023-03-01T05:02:54;2.63;;;1.63;;
11131;SDS011;5620;53.570;9.718;2023-03-01T05:08:07;3.17;;;2.75;;
11131;SDS011;5620;53.570;9.718;2023-03-01T05:10:35;2.40;;;2.20;;
11131;SDS011;5620;53.570;9.718;2023-03-01T05:13:03;3.55;;;2.78;;
11131;SDS011;5620;53.570;9.718;2023-03-01T05:15:31;2.47;;;2.27;;
11131;SDS011;5620;53.570;9.718;2023-03-01T05:17:59;2.58;;;2.10;;
11131;SDS011;5620;53.570;9.718;2023-03-01T05:20:27;3.38;;;2.88;;
11131;SDS011;5620;53.570;9.718;2023-03-01T05:22:56;2.40;;;1.80;;
11131;SDS011;5620;53.570;9.718;2023-03-01T05:25:25;2.40;;;2.20;;
11131;SDS011;5620;53.570;9.718;2023-03-01T05:27:56;3.40;;;2.07;;
11131;SDS011;5620;53.570;9.718;2023-03-01T05:30:22;2.08;;;1.88;;
11131;SDS011;5620;53.570;9.718;2023-03-01T05:32:50;2.90;;;2.70;;
11131;SDS011;5620;53.570;9.718;2023-03-01T05:35:17;4.40;;;2.78;;
11131;SDS011;5620;53.570;9.718;2023-03-01T05:37:44;3.72;;;3.42;;
11131;SDS011;5620;53.570;9.718;2023-03-01T05:40:12;7.83;;;3.37;;
11131;SDS011;5620;53.570;9.718;2023-03-01T05:42:49;4.13;;;3.83;;
11131;SDS011;5620;53.570;9.718;2023-03-01T05:45:17;3.97;;;3.60;;
11131;SDS011;5620;53.570;9.718;2023-03-01T05:47:45;2.92;;;2.72;;
11131;SDS011;5620;53.570;9.718;2023-03-01T05:50:18;4.03;;;3.72;;
11131;SDS011;5620;53.570;9.718;2023-03-01T05:52:54;4.20;;;3.60;;
11131;SDS011;5620;53.570;9.718;2023-03-01T05:55:24;3.55;;;2.92;;
11131;SDS011;5620;53.570;9.718;2023-03-01T05:57:51;3.30;;;3.10;;
11131;SDS011;5620;53.570;9.718;2023-03-01T06:00:18;5.25;;;3.28;;
11131;SDS011;5620;53.570;9.718;2023-03-01T06:02:45;3.63;;;3.30;;
11131;SDS011;5620;53.570;9.718;2023-03-01T06:05:12;2.63;;;2.43;;
11131;SDS011;5620;53.570;9.718;2023-03-01T06:07:39;3.17;;;2.88;;
11131;SDS011;5620;53.570;9.718;2023-03-01T06:10:08;4.38;;;2.97;;
11131;SDS011;5620;53.570;9.718;2023-03-01T06:12:36;3.47;;;3.08;;
11131;SDS011;5620;53.570;9.718;2023-03-01T06:15:04;3.00;;;2.53;;
11131;SDS011;5620;53.570;9.718;2023-03-01T06:17:32;4.15;;;3.58;;
11131;SDS011;5620;53.570;9.718;2023-03-01T06:20:04;4.72;;;3.55;;
11131;SDS011;5620;53.570;9.718;2023-03-01T06:22:31;3.05;;;2.85;;
11131;SDS011;5620;53.570;9.718;2023-03-01T06:24:59;5.50;;;4.63;;
11131;SDS011;5620;53.570;9.718;2023-03-01T06:27:25;3.17;;;2.97;;
11131;SDS011;5620;53.570;9.718;2023-03-01T06:29:50;2.88;;;2.67;;
11131;SDS011;5620;53.570;9.718;2023-03-01T06:32:20;7.13;;;5.07;;
11131;SDS011;5620;53.570;9.718;2023-03-01T06:34:47;3.00;;;2.80;;
11131;SDS011;5620;53.570;9.718;2023-03-01T06:37:14;3.47;;;2.80;;
11131;SDS011;5620;53.570;9.718;2023-03-01T06:39:39;4.13;;;2.88;;
11131;SDS011;5620;53.570;9.718;2023-03-01T06:42:05;3.40;;;3.10;;
11131;SDS011;5620;53.570;9.718;2023-03-01T06:44:33;3.25;;;3.05;;
11131;SDS011;5620;53.570;9.718;2023-03-01T06:47:04;2.80;;;2.60;;
11131;SDS011;5620;53.570;9.718;2023-03-01T06:49:49;3.63;;;3.38;;
11131;SDS011;5620;53.570;9.718;2023-03-01T06:52:16;4.77;;;2.30;;
11131;SDS011;5620;53.570;9.718;2023-03-01T06:54:43;2.40;;;2.20;;
11131;SDS011;5620;53.570;9.718;2023-03-01T06:57:10;3.30;;;3.10;;
11131;SDS011;5620;53.570;9.718;2023-03-01T06:59:37;3.38;;;3.08;;
11131;SDS011;5620;53.570;9.718;2023-03-01T07:02:12;2.78;;;2.55;;
11131;SDS011;5620;53.570;9.718;2023-03-01T07:04:41;3.27;;;2.73;;
11131;SDS011;5620;53.570;9.718;2023-03-01T07:07:08;3.58;;;3.33;;
11131;SDS011;5620;53.570;9.718;2023-03-01T07:09:37;3.22;;;3.00;;
11131;SDS011;5620;53.570;9.718;2023-03-01T07:12:04;5.20;;;3.40;;
11131;SDS011;5620;53.570;9.718;2023-03-01T07:14:31;5.50;;;3.40;;
11131;SDS011;5620;53.570;9.718;2023-03-01T07:16:59;3.03;;;2.77;;
11131;SDS011;5620;53.570;9.718;2023-03-01T07:19:27;9.55;;;5.50;;
11131;SDS011;5620;53.570;9.718;2023-03-01T07:21:55;7.00;;;3.80;;
11131;SDS011;5620;53.570;9.718;2023-03-01T07:24:22;6.00;;;4.82;;
11131;SDS011;5620;53.570;9.718;2023-03-01T07:26:51;13.02;;;9.52;;
11131;SDS011;5620;53.570;9.718;2023-03-01T07:29:17;5.47;;;4.97;;
11131;SDS011;5620;53.570;9.718;2023-03-01T07:31:44;6.90;;;4.45;;
11131;SDS011;5620;53.570;9.718;2023-03-01T07:34:10;7.28;;;3.90;;
11131;SDS011;5620;53.570;9.718;2023-03-01T07:36:38;8.85;;;3.70;;
11131;SDS011;5620;53.570;9.718;2023-03-01T07:39:04;5.47;;;4.95;;
11131;SDS011;5620;53.570;9.718;2023-03-01T07:41:31;6.13;;;3.87;;
11131;SDS011;5620;53.570;9.718;2023-03-01T07:43:59;7.03;;;3.92;;
11131;SDS011;5620;53.570;9.718;2023-03-01T07:46:26;7.75;;;3.63;;
11131;SDS011;5620;53.570;9.718;2023-03-01T07:48:54;3.90;;;3.50;;
11131;SDS011;5620;53.570;9.718;2023-03-01T07:51:22;5.60;;;4.93;;
11131;SDS011;5620;53.570;9.718;2023-03-01T07:53:49;6.37;;;4.40;;
11131;SDS011;5620;53.570;9.718;2023-03-01T07:56:16;5.82;;;4.88;;
11131;SDS011;5620;53.570;9.718;2023-03-01T07:58:43;4.72;;;4.15;;
11131;SDS011;5620;53.570;9.718;2023-03-01T08:01:12;4.80;;;4.25;;
11131;SDS011;5620;53.570;9.718;2023-03-01T08:03:41;4.95;;;4.60;;
11131;SDS011;5620;53.570;9.718;2023-03-01T08:06:08;7.60;;;5.03;;
11131;SDS011;5620;53.570;9.718;2023-03-01T08:08:37;11.30;;;4.82;;
11131;SDS011;5620;53.570;9.718;2023-03-01T08:11:06;5.35;;;4.93;;
11131;SDS011;5620;53.570;9.718;2023-03-01T08:13:34;9.98;;;4.75;;
11131;SDS011;5620;53.570;9.718;2023-03-01T08:16:03;7.72;;;5.47;;
11131;SDS011;5620;53.570;9.718;2023-03-01T08:18:36;5.13;;;4.63;;
11131;SDS011;5620;53.570;9.718;2023-03-01T08:21:10;5.18;;;4.78;;
11131;SDS011;5620;53.570;9.718;2023-03-01T08:23:38;6.15;;;4.75;;
11131;SDS011;5620;53.570;9.718;2023-03-01T08:26:10;5.75;;;5.10;;
11131;SDS011;5620;53.570;9.718;2023-03-01T08:28:56;7.13;;;5.65;;
11131;SDS011;5620;53.570;9.718;2023-03-01T08:31:27;9.83;;;5.90;;
11131;SDS011;5620;53.570;9.718;2023-03-01T08:34:00;6.63;;;6.03;;
11131;SDS011;5620;53.570;9.718;2023-03-01T08:36:35;8.23;;;6.00;;
11131;SDS011;5620;53.570;9.718;2023-03-01T08:39:03;8.02;;;5.65;;
11131;SDS011;5620;53.570;9.718;2023-03-01T08:41:29;7.30;;;5.75;;
11131;SDS011;5620;53.570;9.718;2023-03-01T08:43:56;6.40;;;6.00;;
11131;SDS011;5620;53.570;9.718;2023-03-01T08:46:23;7.32;;;6.05;;
11131;SDS011;5620;53.570;9.718;2023-03-01T08:48:59;6.25;;;5.65;;
11131;SDS011;5620;53.570;9.718;2023-03-01T08:51:28;10.93;;;6.50;;
11131;SDS011;5620;53.570;9.718;2023-03-01T08:53:55;6.65;;;5.75;;
11131;SDS011;5620;53.570;9.718;2023-03-01T08:56:21;6.22;;;5.72;;
11131;SDS011;5620;53.570;9.718;2023-03-01T08:58:50;6.20;;;5.70;;
11131;SDS011;5620;53.570;9.718;2023-03-01T09:01:17;6.15;;;5.60;;
11131;SDS011;5620;53.570;9.718;2023-03-01T09:03:44;5.65;;;5.25;;
11131;SDS011;5620;53.570;9.718;2023-03-01T09:06:12;6.28;;;5.68;;
11131;SDS011;5620;53.570;9.718;2023-03-01T09:08:40;6.55;;;5.72;;
11131;SDS011;5620;53.570;9.718;2023-03-01T09:11:08;5.63;;;5.13;;
11131;SDS011;5620;53.570;9.718;2023-03-01T09:13:36;7.35;;;5.93;;
11131;SDS011;5620;53.570;9.718;2023-03-01T09:16:04;5.10;;;4.57;;
11131;SDS011;5620;53.570;9.718;2023-03-01T09:18:34;6.18;;;5.57;;
11131;SDS011;5620;53.570;9.718;2023-03-01T09:21:21;5.82;;;5.20;;
11131;SDS011;5620;53.570;9.718;2023-03-01T09:23:49;6.13;;;5.53;;
11131;SDS011;5620;53.570;9.718;2023-03-01T09:26:20;6.40;;;5.80;;
11131;SDS011;5620;53.570;9.718;2023-03-01T09:28:50;8.07;;;5.40;;
11131;SDS011;5620;53.570;9.718;2023-03-01T09:31:20;6.97;;;5.30;;
11131;SDS011;5620;53.570;9.718;2023-03-01T09:33:52;11.00;;;8.45;;
11131;SDS011;5620;53.570;9.718;2023-03-01T09:36:20;7.97;;;4.90;;
11131;SDS011;5620;53.570;9.718;2023-03-01T09:38:51;6.97;;;5.60;;
11131;SDS011;5620;53.570;9.718;2023-03-01T09:47:18;4.35;;;4.05;;
11131;SDS011;5620;53.570;9.718;2023-03-01T10:04:49;6.25;;;4.32;;
11131;SDS011;5620;53.570;9.718;2023-03-01T10:10:06;4.13;;;3.92;;
11131;SDS011;5620;53.570;9.718;2023-03-01T10:12:38;4.10;;;3.70;;
11131;SDS011;5620;53.570;9.718;2023-03-01T10:15:22;4.18;;;3.88;;
11131;SDS011;5620;53.570;9.718;2023-03-01T10:18:12;4.50;;;4.20;;
11131;SDS011;5620;53.570;9.718;2023-03-01T10:21:20;4.90;;;4.35;;
11131;SDS011;5620;53.570;9.718;2023-03-01T10:23:42;5.60;;;4.15;;
11131;SDS011;5620;53.570;9.718;2023-03-01T10:29:11;4.13;;;3.72;;
11131;SDS011;5620;53.570;9.718;2023-03-01T10:31:45;4.22;;;3.92;;
11131;SDS011;5620;53.570;9.718;2023-03-01T10:34:16;5.70;;;5.15;;
11131;SDS011;5620;53.570;9.718;2023-03-01T10:36:44;4.60;;;4.18;;
11131;SDS011;5620;53.570;9.718;2023-03-01T10:42:03;5.63;;;4.78;;
11131;SDS011;5620;53.570;9.718;2023-03-01T10:44:44;6.22;;;5.32;;
11131;SDS011;5620;53.570;9.718;2023-03-01T10:47:14;5.65;;;5.15;;
11131;SDS011;5620;53.570;9.718;2023-03-01T10:50:00;9.55;;;4.80;;
11131;SDS011;5620;53.570;9.718;2023-03-01T10:52:34;5.00;;;4.53;;
11131;SDS011;5620;53.570;9.718;2023-03-01T10:55:23;5.25;;;4.82;;
11131;SDS011;5620;53.570;9.718;2023-03-01T10:58:09;5.50;;;5.00;;
11131;SDS011;5620;53.570;9.718;2023-03-01T11:00:52;4.40;;;4.10;;
11131;SDS011;5620;53.570;9.718;2023-03-01T11:04:10;5.05;;;4.65;;
11131;SDS011;5620;53.570;9.718;2023-03-01T11:06:40;7.05;;;5.13;;
11131;SDS011;5620;53.570;9.718;2023-03-01T11:11:58;4.45;;;4.05;;
11131;SDS011;5620;53.570;9.718;2023-03-01T11:14:29;6.80;;;4.10;;
11131;SDS011;5620;53.570;9.718;2023-03-01T11:20:02;5.57;;;4.43;;
11131;SDS011;5620;53.570;9.718;2023-03-01T11:22:55;4.38;;;3.95;;
11131;SDS011;5620;53.570;9.718;2023-03-01T11:25:30;4.22;;;3.85;;
11131;SDS011;5620;53.570;9.718;2023-03-01T11:28:03;5.47;;;4.97;;
11131;SDS011;5620;53.570;9.718;2023-03-01T11:30:40;8.18;;;4.60;;
11131;SDS011;5620;53.570;9.718;2023-03-01T11:42:00;5.80;;;4.75;;
11131;SDS011;5620;53.570;9.718;2023-03-01T11:44:49;6.45;;;4.88;;
11131;SDS011;5620;53.570;9.718;2023-03-01T11:50:47;5.90;;;5.38;;
11131;SDS011;5620;53.570;9.718;2023-03-01T11:59:08;6.22;;;5.65;;
11131;SDS011;5620;53.570;9.718;2023-03-01T12:08:16;6.18;;;5.32;;
11131;SDS011;5620;53.570;9.718;2023-03-01T12:19:49;5.90;;;5.40;;
11131;SDS011;5620;53.570;9.718;2023-03-01T12:25:52;6.50;;;5.68;;
11131;SDS011;5620;53.570;9.718;2023-03-01T12:28:55;7.55;;;6.75;;
11131;SDS011;5620;53.570;9.718;2023-03-01T12:49:16;15.52;;;11.48;;
11131;SDS011;5620;53.570;9.718;2023-03-01T12:52:23;9.45;;;7.78;;
11131;SDS011;5620;53.570;9.718;2023-03-01T13:07:32;13.43;;;10.55;;
11131;SDS011;5620;53.570;9.718;2023-03-01T13:10:31;15.45;;;11.82;;
11131;SDS011;5620;53.570;9.718;2023-03-01T13:17:03;15.17;;;11.00;;
11131;SDS011;5620;53.570;9.718;2023-03-01T13:19:17;14.80;;;11.98;;
11131;SDS011;5620;53.570;9.718;2023-03-01T13:21:48;13.40;;;11.77;;
11131;SDS011;5620;53.570;9.718;2023-03-01T13:24:33;14.68;;;12.30;;
11131;SDS011;5620;53.570;9.718;2023-03-01T13:29:56;18.40;;;12.53;;
11131;SDS011;5620;53.570;9.718;2023-03-01T13:32:24;19.40;;;14.13;;
11131;SDS011;5620;53.570;9.718;2023-03-01T13:35:03;12.00;;;10.70;;
11131;SDS011;5620;53.570;9.718;2023-03-01T13:37:53;14.40;;;11.82;;
11131;SDS011;5620;53.570;9.718;2023-03-01T13:44:11;13.27;;;10.90;;
11131;SDS011;5620;53.570;9.718;2023-03-01T13:52:49;12.68;;;11.07;;
11131;SDS011;5620;53.570;9.718;2023-03-01T13:55:41;10.70;;;9.52;;
11131;SDS011;5620;53.570;9.718;2023-03-01T14:04:23;12.18;;;9.90;;
11131;SDS011;5620;53.570;9.718;2023-03-01T14:06:51;11.18;;;10.00;;
11131;SDS011;5620;53.570;9.718;2023-03-01T14:09:34;9.95;;;8.55;;
11131;SDS011;5620;53.570;9.718;2023-03-01T14:15:15;11.48;;;8.93;;
11131;SDS011;5620;53.570;9.718;2023-03-01T14:18:11;9.48;;;8.57;;
11131;SDS011;5620;53.570;9.718;2023-03-01T14:20:46;9.07;;;8.05;;
11131;SDS011;5620;53.570;9.718;2023-03-01T14:23:15;12.52;;;8.18;;
11131;SDS011;5620;53.570;9.718;2023-03-01T14:28:33;11.90;;;7.60;;
11131;SDS011;5620;53.570;9.718;2023-03-01T14:31:02;7.63;;;6.95;;
11131;SDS011;5620;53.570;9.718;2023-03-01T14:33:54;14.10;;;7.32;;
11131;SDS011;5620;53.570;9.718;2023-03-01T14:36:28;7.57;;;6.88;;
11131;SDS011;5620;53.570;9.718;2023-03-01T14:38:55;8.70;;;7.17;;
11131;SDS011;5620;53.570;9.718;2023-03-01T14:41:23;7.97;;;7.18;;
11131;SDS011;5620;53.570;9.718;2023-03-01T14:44:01;7.53;;;6.82;;
11131;SDS011;5620;53.570;9.718;2023-03-01T14:46:34;9.15;;;6.20;;
11131;SDS011;5620;53.570;9.718;2023-03-01T14:52:03;6.20;;;5.30;;
11131;SDS011;5620;53.570;9.718;2023-03-01T14:54:44;6.78;;;5.88;;
11131;SDS011;5620;53.570;9.718;2023-03-01T14:59:54;6.82;;;5.68;;
11131;SDS011;5620;53.570;9.718;2023-03-01T15:02:24;8.63;;;6.43;;
11131;SDS011;5620;53.570;9.718;2023-03-01T15:04:56;7.20;;;6.37;;
11131;SDS011;5620;53.570;9.718;2023-03-01T15:07:31;6.93;;;6.15;;
11131;SDS011;5620;53.570;9.718;2023-03-01T15:10:04;13.40;;;6.63;;
11131;SDS011;5620;53.570;9.718;2023-03-01T15:12:41;9.35;;;5.63;;
11131;SDS011;5620;53.570;9.718;2023-03-01T15:15:30;6.20;;;5.68;;
11131;SDS011;5620;53.570;9.718;2023-03-01T15:18:04;7.87;;;5.83;;
11131;SDS011;5620;53.570;9.718;2023-03-01T15:20:53;7.55;;;5.88;;
11131;SDS011;5620;53.570;9.718;2023-03-01T15:23:27;7.75;;;5.72;;
11131;SDS011;5620;53.570;9.718;2023-03-01T15:25:56;6.88;;;6.18;;
11131;SDS011;5620;53.570;9.718;2023-03-01T15:28:28;8.13;;;7.32;;
11131;SDS011;5620;53.570;9.718;2023-03-01T15:33:45;8.63;;;7.28;;
11131;SDS011;5620;53.570;9.718;2023-03-01T15:39:04;7.53;;;6.82;;
11131;SDS011;5620;53.570;9.718;2023-03-01T15:41:58;9.88;;;7.10;;
11131;SDS011;5620;53.570;9.718;2023-03-01T15:44:26;6.80;;;6.05;;
11131;SDS011;5620;53.570;9.718;2023-03-01T15:46:55;11.63;;;7.05;;
11131;SDS011;5620;53.570;9.718;2023-03-01T15:52:22;10.73;;;6.00;;
11131;SDS011;5620;53.570;9.718;2023-03-01T15:54:59;8.45;;;7.15;;
11131;SDS011;5620;53.570;9.718;2023-03-01T15:57:30;6.47;;;5.78;;
11131;SDS011;5620;53.570;9.718;2023-03-01T15:59:56;10.57;;;6.78;;
11131;SDS011;5620;53.570;9.718;2023-03-01T16:02:23;11.33;;;6.60;;
11131;SDS011;5620;53.570;9.718;2023-03-01T16:04:52;11.30;;;6.90;;
11131;SDS011;5620;53.570;9.718;2023-03-01T16:07:20;9.18;;;6.47;;
11131;SDS011;5620;53.570;9.718;2023-03-01T16:09:47;9.43;;;6.93;;
11131;SDS011;5620;53.570;9.718;2023-03-01T16:12:14;8.27;;;7.35;;
11131;SDS011;5620;53.570;9.718;2023-03-01T16:14:41;9.75;;;7.43;;
11131;SDS011;5620;53.570;9.718;2023-03-01T16:17:08;13.63;;;7.78;;
11131;SDS011;5620;53.570;9.718;2023-03-01T16:19:35;8.27;;;5.83;;
11131;SDS011;5620;53.570;9.718;2023-03-01T16:22:05;8.27;;;6.13;;
11131;SDS011;5620;53.570;9.718;2023-03-01T16:24:32;8.00;;;6.82;;
11131;SDS011;5620;53.570;9.718;2023-03-01T16:26:57;9.23;;;6.85;;
11131;SDS011;5620;53.570;9.718;2023-03-01T16:29:24;7.93;;;6.30;;
11131;SDS011;5620;53.570;9.718;2023-03-01T16:31:52;10.20;;;7.22;;
11131;SDS011;5620;53.570;9.718;2023-03-01T16:34:21;11.35;;;7.65;;
11131;SDS011;5620;53.570;9.718;2023-03-01T16:36:47;9.43;;;8.02;;
11131;SDS011;5620;53.570;9.718;2023-03-01T16:39:13;11.43;;;7.30;;
11131;SDS011;5620;53.570;9.718;2023-03-01T16:41:42;14.90;;;8.35;;
11131;SDS011;5620;53.570;9.718;2023-03-01T16:44:08;17.08;;;9.15;;
11131;SDS011;5620;53.570;9.718;2023-03-01T16:46:35;17.13;;;7.13;;
11131;SDS011;5620;53.570;9.718;2023-03-01T16:49:04;9.63;;;7.47;;
11131;SDS011;5620;53.570;9.718;2023-03-01T16:51:29;12.68;;;7.68;;
11131;SDS011;5620;53.570;9.718;2023-03-01T16:53:55;15.63;;;8.90;;
11131;SDS011;5620;53.570;9.718;2023-03-01T16:56:22;17.10;;;8.00;;
11131;SDS011;5620;53.570;9.718;2023-03-01T16:58:50;11.90;;;8.45;;
11131;SDS011;5620;53.570;9.718;2023-03-01T17:01:18;13.63;;;8.82;;
11131;SDS011;5620;53.570;9.718;2023-03-01T17:03:46;15.40;;;10.43;;
11131;SDS011;5620;53.570;9.718;2023-03-01T17:06:15;13.23;;;7.10;;
11131;SDS011;5620;53.570;9.718;2023-03-01T17:08:46;14.27;;;7.68;;
11131;SDS011;5620;53.570;9.718;2023-03-01T17:11:17;13.00;;;8.82;;
11131;SDS011;5620;53.570;9.718;2023-03-01T17:13:44;16.63;;;10.73;;
11131;SDS011;5620;53.570;9.718;2023-03-01T17:16:13;19.25;;;9.85;;
11131;SDS011;5620;53.570;9.718;2023-03-01T17:18:42;15.20;;;9.60;;
11131;SDS011;5620;53.570;9.718;2023-03-01T17:21:10;21.98;;;10.18;;
11131;SDS011;5620;53.570;9.718;2023-03-01T17:23:43;17.38;;;9.45;;
11131;SDS011;5620;53.570;9.718;2023-03-01T17:26:12;15.35;;;9.68;;
11131;SDS011;5620;53.570;9.718;2023-03-01T17:28:38;21.70;;;9.57;;
11131;SDS011;5620;53.570;9.718;2023-03-01T17:31:05;12.90;;;9.15;;
11131;SDS011;5620;53.570;9.718;2023-03-01T17:33:32;21.35;;;10.45;;
11131;SDS011;5620;53.570;9.718;2023-03-01T17:36:00;24.90;;;11.18;;
11131;SDS011;5620;53.570;9.718;2023-03-01T17:38:26;19.77;;;9.30;;
11131;SDS011;5620;53.570;9.718;2023-03-01T17:40:53;20.70;;;8.75;;
11131;SDS011;5620;53.570;9.718;2023-03-01T17:43:19;13.90;;;8.57;;
11131;SDS011;5620;53.570;9.718;2023-03-01T17:45:46;13.63;;;8.57;;
11131;SDS011;5620;53.570;9.718;2023-03-01T17:48:13;18.50;;;9.27;;
11131;SDS011;5620;53.570;9.718;2023-03-01T17:50:43;22.85;;;9.65;;
11131;SDS011;5620;53.570;9.718;2023-03-01T17:53:11;19.75;;;9.70;;
11131;SDS011;5620;53.570;9.718;2023-03-01T17:55:40;14.73;;;8.07;;
11131;SDS011;5620;53.570;9.718;2023-03-01T17:58:11;13.50;;;7.78;;
11131;SDS011;5620;53.570;9.718;2023-03-01T18:00:43;17.42;;;9.50;;
11131;SDS011;5620;53.570;9.718;2023-03-01T18:03:10;19.58;;;9.15;;
11131;SDS011;5620;53.570;9.718;2023-03-01T18:05:38;15.30;;;7.50;;
11131;SDS011;5620;53.570;9.718;2023-03-01T18:08:06;13.63;;;7.83;;
11131;SDS011;5620;53.570;9.718;2023-03-01T18:10:36;14.20;;;7.88;;